Terminal Aerodrome Forecast
Issued by NWS Central Illinois

Home | Current Version | Previous Version | Text Only | Print | Product List | Glossary On
Versions: 1 2 3 4 5 6 7 8 9 10 11 12 13 14
000
FTUS43 KILX 040534
TAFSPI
TAF
KSPI 040534Z 0406/0506 VRB04KT P6SM SCT100
     FM041600 22006KT P6SM SCT050
     FM050000 18005KT P6SM SCT250=

USA.gov is the U.S. government's official web portal to all federal, state and local government web resources and services.